Time;durP1;ratioP1;P1;durP2;ratioP2;P2;SDS_P1;SDS_P2;PMS_P1;PMS_P2;Temp;Humidity;BMP_temperature;BMP_pressure;BME280_temperature;BME280_humidity;BME280_pressure;Samples;Min_cycle;Max_cycle;Signal;HPM_P1;HPM_P2
2021/11/22 00:02:17;;;;;;;6.60;1.60;;;5.10;99.90;;;;;;5010079;28;20210;-81
2021/11/22 00:04:45;;;;;;;5.63;1.60;;;5.10;99.90;;;;;;5010420;28;20414;-84
2021/11/22 00:07:15;;;;;;;9.87;1.90;;;5.20;99.90;;;;;;5007428;28;20211;-85
2021/11/22 00:09:42;;;;;;;9.53;2.40;;;5.20;99.90;;;;;;4989178;28;20226;-81
2021/11/22 00:12:09;;;;;;;7.23;1.70;;;5.20;99.90;;;;;;4988008;28;20212;-79
2021/11/22 00:14:37;;;;;;;4.90;1.20;;;5.20;99.90;;;;;;4994243;28;20206;-78
2021/11/22 00:17:05;;;;;;;8.43;1.60;;;5.20;99.90;;;;;;5008261;28;20203;-78
2021/11/22 00:19:33;;;;;;;8.67;1.70;;;5.20;99.90;;;;;;5007839;28;20230;-79
2021/11/22 00:22:02;;;;;;;4.47;1.57;;;5.20;99.90;;;;;;5008680;28;20506;-78
2021/11/22 00:24:31;;;;;;;3.20;1.33;;;5.20;99.90;;;;;;5009402;28;20227;-83
2021/11/22 00:26:58;;;;;;;5.57;1.70;;;5.20;99.90;;;;;;5008422;28;20849;-78
2021/11/22 00:29:24;;;;;;;5.60;1.63;;;5.20;99.90;;;;;;5008040;28;20223;-81
2021/11/22 00:31:53;;;;;;;4.80;1.50;;;5.20;99.90;;;;;;4996876;28;20212;-86
2021/11/22 00:34:20;;;;;;;4.47;1.57;;;5.20;99.90;;;;;;4988492;28;20637;-84
2021/11/22 00:36:47;;;;;;;5.70;1.20;;;5.20;99.90;;;;;;5007770;28;20215;-80
2021/11/22 00:39:14;;;;;;;8.07;1.80;;;5.10;99.90;;;;;;5007533;28;20210;-80
2021/11/22 00:41:43;;;;;;;3.23;0.93;;;5.10;99.90;;;;;;5007930;28;20262;-80
2021/11/22 00:44:09;;;;;;;4.23;1.27;;;5.10;99.90;;;;;;4996223;28;20208;-81
2021/11/22 00:46:36;;;;;;;4.93;1.50;;;5.10;99.90;;;;;;4988238;28;20236;-79
2021/11/22 00:49:03;;;;;;;8.37;1.80;;;5.10;99.90;;;;;;5025104;28;20501;-80
2021/11/22 00:51:31;;;;;;;6.47;1.00;;;5.10;99.90;;;;;;5028567;28;20298;-80
2021/11/22 00:53:57;;;;;;;3.77;1.30;;;5.10;99.90;;;;;;5027311;28;20217;-77
2021/11/22 00:56:25;;;;;;;6.17;1.80;;;5.10;99.90;;;;;;5004514;28;20596;-85
2021/11/22 00:58:53;;;;;;;4.83;1.80;;;5.00;99.90;;;;;;4987048;28;20207;-84
2021/11/22 01:01:19;;;;;;;4.17;1.43;;;5.00;99.90;;;;;;4987992;28;20199;-78
2021/11/22 01:03:46;;;;;;;3.80;1.43;;;5.00;99.90;;;;;;4989603;28;20622;-79
2021/11/22 01:06:13;;;;;;;7.10;1.30;;;5.00;99.90;;;;;;4989778;28;20246;-77
2021/11/22 01:08:40;;;;;;;3.00;0.90;;;4.90;99.90;;;;;;5010420;28;20294;-79
2021/11/22 01:11:07;;;;;;;4.70;1.30;;;4.80;99.90;;;;;;5009454;28;20206;-81
2021/11/22 01:13:34;;;;;;;8.63;2.13;;;4.80;99.90;;;;;;5004260;28;20231;-80
2021/11/22 01:16:02;;;;;;;4.93;1.20;;;4.70;99.90;;;;;;4990107;28;20196;-81
2021/11/22 01:18:28;;;;;;;7.67;1.40;;;4.70;99.90;;;;;;4988074;28;20219;-83
2021/11/22 01:20:55;;;;;;;5.60;1.03;;;4.70;99.90;;;;;;4989862;28;20219;-84
2021/11/22 01:23:22;;;;;;;4.13;1.27;;;4.60;99.90;;;;;;4987055;28;20631;-86
2021/11/22 01:25:49;;;;;;;4.53;1.50;;;4.60;99.90;;;;;;4998380;28;20234;-85
2021/11/22 01:28:16;;;;;;;5.57;1.37;;;4.60;99.90;;;;;;5010190;28;20203;-82
2021/11/22 01:30:43;;;;;;;3.13;1.50;;;4.50;99.90;;;;;;5010272;28;20211;-85
2021/11/22 01:33:13;;;;;;;5.63;0.90;;;4.50;99.90;;;;;;5010300;28;20699;-81
2021/11/22 01:35:40;;;;;;;4.77;1.20;;;4.50;99.90;;;;;;5009292;28;20230;-84
2021/11/22 01:38:08;;;;;;;2.60;0.90;;;4.40;99.90;;;;;;5006387;28;20209;-86
2021/11/22 01:40:35;;;;;;;3.23;1.03;;;4.40;99.90;;;;;;4988021;28;20271;-77
2021/11/22 01:43:01;;;;;;;2.67;0.90;;;4.40;99.90;;;;;;4986432;28;20192;-79
2021/11/22 01:45:31;;;;;;;4.27;1.10;;;4.30;99.90;;;;;;4986567;28;20228;-83
2021/11/22 01:47:58;;;;;;;3.87;1.00;;;4.30;99.90;;;;;;4999400;28;20214;-84
2021/11/22 01:50:28;;;;;;;4.17;1.07;;;4.30;99.90;;;;;;5006004;28;20230;-78
2021/11/22 01:52:56;;;;;;;2.60;0.80;;;4.30;99.90;;;;;;5005732;28;20872;-78
2021/11/22 01:55:25;;;;;;;1.73;1.10;;;4.30;99.90;;;;;;5005867;28;20266;-79
2021/11/22 01:57:55;;;;;;;3.50;0.90;;;4.30;99.90;;;;;;4988235;28;20215;-81
2021/11/22 02:00:24;;;;;;;3.97;1.37;;;4.20;99.90;;;;;;4986344;28;20214;-80
2021/11/22 02:02:52;;;;;;;3.50;1.20;;;4.20;99.90;;;;;;4987022;28;20231;-82
2021/11/22 02:05:18;;;;;;;4.40;1.17;;;4.20;99.90;;;;;;5001502;28;20230;-78
2021/11/22 02:07:47;;;;;;;2.50;1.03;;;4.20;99.90;;;;;;5006511;28;20211;-80
2021/11/22 02:10:15;;;;;;;3.47;1.03;;;4.10;99.90;;;;;;4993086;28;20219;-81
2021/11/22 02:12:42;;;;;;;1.03;0.80;;;4.10;99.90;;;;;;4987794;28;20219;-82
2021/11/22 02:15:11;;;;;;;1.90;1.03;;;4.10;99.90;;;;;;4988471;28;20203;-86
2021/11/22 02:17:39;;;;;;;2.17;0.90;;;4.10;99.90;;;;;;4987223;28;20200;-85
2021/11/22 02:20:10;;;;;;;4.10;1.00;;;4.00;99.90;;;;;;4993576;28;20218;-83
2021/11/22 02:22:37;;;;;;;4.23;1.43;;;4.00;99.90;;;;;;5007090;28;20261;-78
2021/11/22 02:25:08;;;;;;;4.37;1.10;;;3.90;99.90;;;;;;5007092;28;20215;-80
2021/11/22 02:27:35;;;;;;;3.80;1.30;;;3.90;99.90;;;;;;5007413;28;20192;-78
2021/11/22 02:30:02;;;;;;;3.17;1.10;;;3.90;99.90;;;;;;5006110;28;20207;-80
2021/11/22 02:32:29;;;;;;;2.17;0.80;;;3.90;99.90;;;;;;4999771;28;20214;-80
2021/11/22 02:34:56;;;;;;;3.97;1.30;;;3.80;99.90;;;;;;4987570;28;20200;-84
2021/11/22 02:37:24;;;;;;;3.07;2.13;;;3.80;99.90;;;;;;4988183;28;20204;-83
2021/11/22 02:39:51;;;;;;;2.93;1.23;;;3.80;99.90;;;;;;4988280;28;20215;-86
2021/11/22 02:42:24;;;;;;;4.40;1.47;;;3.80;99.90;;;;;;5024959;28;20210;-86
2021/11/22 02:44:51;;;;;;;2.10;0.93;;;3.70;99.90;;;;;;4989610;28;20490;-87
2021/11/22 02:47:18;;;;;;;3.90;1.03;;;3.70;99.90;;;;;;4988994;28;20250;-85
2021/11/22 02:49:45;;;;;;;4.50;1.13;;;3.60;99.90;;;;;;5005211;28;20222;-79
2021/11/22 02:52:12;;;;;;;2.27;0.90;;;3.60;99.90;;;;;;5029355;28;20210;-79
2021/11/22 02:54:41;;;;;;;1.87;0.80;;;3.50;99.90;;;;;;5027653;28;20209;-85
2021/11/22 02:57:08;;;;;;;5.37;1.03;;;3.50;99.90;;;;;;5024804;28;20304;-87
2021/11/22 02:59:39;;;;;;;3.03;0.70;;;3.50;99.90;;;;;;5028262;28;20206;-86
2021/11/22 03:02:06;;;;;;;4.47;1.50;;;3.50;99.90;;;;;;5027335;28;20510;-85
2021/11/22 03:04:33;;;;;;;3.57;1.20;;;3.50;99.90;;;;;;5026969;28;20224;-85
2021/11/22 03:06:59;;;;;;;1.53;1.00;;;3.40;99.90;;;;;;5025217;28;20226;-86
2021/11/22 03:09:26;;;;;;;2.87;1.20;;;3.40;99.90;;;;;;4989614;28;20283;-79
2021/11/22 03:11:55;;;;;;;2.47;1.17;;;3.40;99.90;;;;;;4985663;28;20616;-80
2021/11/22 03:14:23;;;;;;;1.23;0.77;;;3.40;99.90;;;;;;4984698;28;20204;-77
2021/11/22 03:16:50;;;;;;;1.67;0.90;;;3.30;99.90;;;;;;4985636;28;20214;-78
2021/11/22 03:19:16;;;;;;;3.17;1.07;;;3.30;99.90;;;;;;4985859;28;20232;-82
2021/11/22 03:21:44;;;;;;;2.50;0.87;;;3.30;99.90;;;;;;4984308;28;20224;-78
2021/11/22 03:24:11;;;;;;;2.00;1.10;;;3.30;99.90;;;;;;4985790;28;20208;-84
2021/11/22 03:26:38;;;;;;;2.97;0.97;;;3.30;99.90;;;;;;5007222;23;20242;-82
2021/11/22 03:29:07;;;;;;;4.03;1.67;;;3.20;99.90;;;;;;5005688;28;20212;-79
2021/11/22 03:31:36;;;;;;;5.00;1.40;;;3.20;99.90;;;;;;5005400;28;20207;-77
2021/11/22 03:34:04;;;;;;;2.73;1.23;;;3.30;99.90;;;;;;5005637;28;20210;-84
2021/11/22 03:36:32;;;;;;;4.60;1.37;;;3.30;99.90;;;;;;5005443;28;20207;-84
2021/11/22 03:39:00;;;;;;;3.83;1.07;;;3.30;99.90;;;;;;4997423;28;20218;-84
2021/11/22 03:41:28;;;;;;;4.40;1.23;;;3.30;99.90;;;;;;4986639;28;20200;-84
2021/11/22 03:43:57;;;;;;;1.13;0.80;;;3.30;99.90;;;;;;4990290;28;20208;-80
2021/11/22 03:46:26;;;;;;;2.30;1.30;;;3.30;99.90;;;;;;4990839;28;20634;-78
2021/11/22 03:48:53;;;;;;;2.10;0.73;;;3.20;99.90;;;;;;4991191;28;20211;-78
2021/11/22 03:51:21;;;;;;;2.40;1.10;;;3.20;99.90;;;;;;4990595;28;20242;-77
2021/11/22 03:53:48;;;;;;;2.93;1.37;;;3.20;99.90;;;;;;4991676;28;20247;-78
2021/11/22 03:56:15;;;;;;;2.93;0.70;;;3.20;99.90;;;;;;4990508;28;20200;-85
2021/11/22 03:58:42;;;;;;;3.50;1.03;;;3.10;99.90;;;;;;4991266;28;20200;-77
2021/11/22 04:01:09;;;;;;;1.30;0.87;;;3.10;99.90;;;;;;4990785;28;20204;-84
2021/11/22 04:03:37;;;;;;;1.13;0.87;;;3.10;99.90;;;;;;5002671;28;20298;-84
2021/11/22 04:06:04;;;;;;;1.73;0.90;;;3.10;99.90;;;;;;5011763;28;20233;-82
2021/11/22 04:08:31;;;;;;;2.63;1.00;;;3.10;99.90;;;;;;4995052;28;20218;-85
2021/11/22 04:10:58;;;;;;;2.70;1.33;;;3.00;99.90;;;;;;4991779;28;20219;-81
2021/11/22 04:13:25;;;;;;;2.83;1.03;;;3.00;99.90;;;;;;5008872;28;20207;-77
2021/11/22 04:15:52;;;;;;;2.90;1.33;;;3.00;99.90;;;;;;5012050;28;20206;-84
2021/11/22 04:18:19;;;;;;;3.47;1.43;;;3.00;99.90;;;;;;5011022;28;20199;-84
2021/11/22 04:20:47;;;;;;;3.27;0.80;;;3.00;99.90;;;;;;4992864;28;20214;-79
2021/11/22 04:23:14;;;;;;;2.90;1.00;;;3.00;99.90;;;;;;4990927;28;20220;-83
2021/11/22 04:25:41;;;;;;;1.73;0.87;;;3.00;99.90;;;;;;4997132;28;20623;-81
2021/11/22 04:28:10;;;;;;;1.73;0.83;;;3.00;99.90;;;;;;5008674;28;20238;-78
2021/11/22 04:30:38;;;;;;;4.57;2.10;;;2.90;99.90;;;;;;5010914;28;20207;-80
2021/11/22 04:33:05;;;;;;;2.30;0.80;;;2.90;99.90;;;;;;5011991;28;20191;-78
2021/11/22 04:35:32;;;;;;;1.50;0.70;;;2.90;99.90;;;;;;5006732;28;20208;-77
2021/11/22 04:38:00;;;;;;;3.00;1.10;;;2.80;99.90;;;;;;4987979;28;20204;-77
2021/11/22 04:40:27;;;;;;;1.67;0.90;;;2.80;99.90;;;;;;4986854;28;20215;-77
2021/11/22 04:42:54;;;;;;;1.27;0.70;;;2.80;99.90;;;;;;4989159;28;20214;-77
2021/11/22 04:45:25;;;;;;;2.83;0.73;;;2.80;99.90;;;;;;4993273;28;20199;-75
2021/11/22 04:47:53;;;;;;;3.67;0.83;;;2.70;99.90;;;;;;4991326;28;20258;-77
2021/11/22 04:50:20;;;;;;;4.70;1.53;;;2.70;99.90;;;;;;4992024;28;20204;-76
2021/11/22 04:52:49;;;;;;;2.63;1.00;;;2.70;99.90;;;;;;5012107;28;20212;-76
2021/11/22 04:55:20;;;;;;;4.10;1.07;;;2.60;99.90;;;;;;5008054;28;20322;-76
2021/11/22 04:57:48;;;;;;;3.33;1.23;;;2.60;99.90;;;;;;5007148;28;20200;-84
2021/11/22 05:00:17;;;;;;;3.60;0.90;;;2.60;99.90;;;;;;5006901;28;20203;-82
2021/11/22 05:02:45;;;;;;;3.43;1.10;;;2.50;99.90;;;;;;5007081;28;20222;-77
2021/11/22 05:05:13;;;;;;;3.10;0.80;;;2.50;99.90;;;;;;5007040;28;20262;-79
2021/11/22 05:07:41;;;;;;;2.70;0.83;;;2.50;99.90;;;;;;5006951;28;20230;-77
2021/11/22 05:10:09;;;;;;;1.50;1.10;;;2.50;99.90;;;;;;5007073;28;20604;-83
2021/11/22 05:12:38;;;;;;;1.87;1.07;;;2.50;99.90;;;;;;5007268;28;20207;-77
2021/11/22 05:15:06;;;;;;;3.73;1.20;;;2.50;99.90;;;;;;5007763;28;20191;-77
2021/11/22 05:17:33;;;;;;;1.47;1.10;;;2.50;99.90;;;;;;5008426;28;20539;-83
2021/11/22 05:20:00;;;;;;;5.30;1.00;;;2.40;99.90;;;;;;5007824;28;20592;-77
2021/11/22 05:22:27;;;;;;;1.63;1.10;;;2.40;99.90;;;;;;4988124;28;20232;-81
2021/11/22 05:24:54;;;;;;;1.80;0.90;;;2.40;99.90;;;;;;4987920;28;20204;-83
2021/11/22 05:27:29;;;;;;;1.80;0.93;;;2.40;99.90;;;;;;4996080;28;20234;-82
2021/11/22 05:29:58;;;;;;;2.30;1.00;;;2.40;99.90;;;;;;5008098;28;20195;-84
2021/11/22 05:32:25;;;;;;;2.67;1.10;;;2.40;99.90;;;;;;5007216;28;20203;-82
2021/11/22 05:34:54;;;;;;;2.73;1.27;;;2.40;99.90;;;;;;4992763;28;20215;-80
2021/11/22 05:37:21;;;;;;;2.60;1.10;;;2.30;99.90;;;;;;4992032;28;20666;-82
2021/11/22 05:39:49;;;;;;;3.70;1.00;;;2.30;99.90;;;;;;5007613;28;20203;-75
2021/11/22 05:42:17;;;;;;;3.63;1.20;;;2.30;99.90;;;;;;5007361;28;20207;-78
2021/11/22 05:44:45;;;;;;;1.57;1.17;;;2.30;99.90;;;;;;5007114;28;20226;-78
2021/11/22 05:47:14;;;;;;;2.77;1.10;;;2.20;99.90;;;;;;5008319;28;20230;-78
2021/11/22 05:49:41;;;;;;;2.67;0.93;;;2.20;99.90;;;;;;5007897;28;20530;-81
2021/11/22 05:52:11;;;;;;;2.93;1.13;;;2.20;99.90;;;;;;5008003;28;20199;-79
2021/11/22 05:54:46;;;;;;;1.10;0.90;;;2.20;99.90;;;;;;4989609;28;20270;-82
2021/11/22 05:57:13;;;;;;;1.97;1.00;;;2.20;99.90;;;;;;4997942;28;20587;-82
2021/11/22 05:59:40;;;;;;;2.60;1.10;;;2.20;99.90;;;;;;5004623;28;20218;-83
2021/11/22 06:02:07;;;;;;;4.27;2.27;;;2.20;99.90;;;;;;5005047;28;20201;-81
2021/11/22 06:04:35;;;;;;;2.03;1.20;;;2.20;99.90;;;;;;5004627;28;20211;-77
2021/11/22 06:07:02;;;;;;;1.70;0.97;;;2.30;99.90;;;;;;4986101;28;20235;-81
2021/11/22 06:09:29;;;;;;;1.47;0.90;;;2.20;99.90;;;;;;4988848;28;20317;-81
2021/11/22 06:11:56;;;;;;;1.57;1.20;;;2.20;99.90;;;;;;5006754;28;20210;-78
2021/11/22 06:14:23;;;;;;;3.23;0.90;;;2.20;99.90;;;;;;5006948;28;20611;-82
2021/11/22 06:16:50;;;;;;;2.43;0.90;;;2.20;99.90;;;;;;5006758;28;21022;-77
2021/11/22 06:19:17;;;;;;;1.07;0.80;;;2.20;99.90;;;;;;5006981;28;20665;-79
2021/11/22 06:21:45;;;;;;;2.37;1.10;;;2.20;99.90;;;;;;4988298;28;20235;-76
2021/11/22 06:24:12;;;;;;;1.80;0.90;;;2.10;99.90;;;;;;4995258;28;20960;-79
2021/11/22 06:26:39;;;;;;;1.73;0.80;;;2.10;99.90;;;;;;5006312;28;20247;-79
2021/11/22 06:29:08;;;;;;;3.27;1.17;;;2.10;99.90;;;;;;5007054;28;20554;-80
2021/11/22 06:31:35;;;;;;;3.07;1.00;;;2.10;99.90;;;;;;5007778;28;20217;-83
2021/11/22 06:34:02;;;;;;;3.57;1.40;;;2.10;99.90;;;;;;5007576;28;20207;-82
2021/11/22 06:36:29;;;;;;;1.47;0.90;;;2.00;99.90;;;;;;5007143;28;20210;-82
2021/11/22 06:38:57;;;;;;;6.47;2.20;;;2.00;99.90;;;;;;5007955;28;20211;-77
2021/11/22 06:41:24;;;;;;;4.17;1.20;;;2.00;99.90;;;;;;5007430;28;20195;-81
2021/11/22 06:43:51;;;;;;;1.27;0.97;;;2.00;99.90;;;;;;5007451;28;20504;-75
2021/11/22 06:46:18;;;;;;;1.30;1.20;;;1.90;99.90;;;;;;5007258;28;20230;-82
2021/11/22 06:48:46;;;;;;;2.90;1.20;;;1.90;99.90;;;;;;5007159;28;20222;-81
2021/11/22 06:51:12;;;;;;;3.70;1.27;;;1.90;99.90;;;;;;5007026;28;20207;-83
2021/11/22 06:53:39;;;;;;;2.80;1.20;;;1.90;99.90;;;;;;5005665;28;20210;-78
2021/11/22 06:56:07;;;;;;;2.80;1.10;;;1.90;99.90;;;;;;5006525;28;20210;-78
2021/11/22 06:58:34;;;;;;;1.80;1.37;;;1.90;99.90;;;;;;5006189;28;20191;-78
2021/11/22 07:01:01;;;;;;;2.90;1.43;;;1.90;99.90;;;;;;5005887;28;20224;-77
2021/11/22 07:03:28;;;;;;;4.70;2.20;;;1.90;99.90;;;;;;5006252;28;20241;-78
2021/11/22 07:05:55;;;;;;;5.33;1.70;;;1.90;99.90;;;;;;5006489;28;20596;-78
2021/11/22 07:08:22;;;;;;;2.07;1.37;;;1.90;99.90;;;;;;4988996;28;20239;-79
2021/11/22 07:10:49;;;;;;;3.00;1.97;;;1.80;99.90;;;;;;4986866;28;20226;-81
2021/11/22 07:13:17;;;;;;;3.80;2.30;;;1.80;99.90;;;;;;4985919;28;20215;-77
2021/11/22 07:15:44;;;;;;;3.37;2.20;;;1.80;99.90;;;;;;4986749;28;20219;-79
2021/11/22 07:18:11;;;;;;;5.30;2.67;;;1.80;99.90;;;;;;4988476;28;20211;-81
2021/11/22 07:20:39;;;;;;;5.73;3.03;;;1.80;99.90;;;;;;4989509;28;20618;-79
2021/11/22 07:23:06;;;;;;;8.03;3.90;;;1.80;99.90;;;;;;4990196;28;20227;-80
2021/11/22 07:25:33;;;;;;;6.83;3.60;;;1.80;99.90;;;;;;5005364;28;20861;-78
2021/11/22 07:28:00;;;;;;;6.00;4.03;;;1.80;99.90;;;;;;5007606;28;20578;-78
2021/11/22 07:30:28;;;;;;;7.93;4.93;;;1.80;99.90;;;;;;5006697;28;20905;-80
2021/11/22 07:32:54;;;;;;;6.30;3.60;;;1.80;99.90;;;;;;5006021;28;20203;-76
2021/11/22 07:35:22;;;;;;;9.33;4.60;;;1.80;99.90;;;;;;4988310;28;20887;-79
2021/11/22 07:37:50;;;;;;;7.27;3.93;;;1.80;99.90;;;;;;4987933;28;20659;-75
2021/11/22 07:40:20;;;;;;;9.13;5.03;;;1.80;99.90;;;;;;4988039;28;20208;-81
2021/11/22 07:42:47;;;;;;;8.27;4.60;;;1.80;99.90;;;;;;4996941;28;20291;-77
2021/11/22 07:45:14;;;;;;;8.80;4.57;;;1.90;99.90;;;;;;5008599;28;20203;-79
2021/11/22 07:47:42;;;;;;;10.80;5.80;;;1.90;99.90;;;;;;5007861;28;20238;-78
2021/11/22 07:50:09;;;;;;;15.33;7.53;;;1.90;99.90;;;;;;5007897;28;20207;-76
2021/11/22 07:52:36;;;;;;;18.00;9.07;;;1.90;99.90;;;;;;5007385;28;20583;-75
2021/11/22 07:55:03;;;;;;;19.03;9.80;;;2.00;99.90;;;;;;5007302;28;20222;-81
2021/11/22 07:57:30;;;;;;;22.80;13.53;;;2.10;99.90;;;;;;5008377;28;20291;-80
2021/11/22 07:59:57;;;;;;;27.30;14.87;;;2.20;99.90;;;;;;5008180;28;20223;-79
2021/11/22 08:02:24;;;;;;;19.17;12.30;;;2.30;99.90;;;;;;5003830;28;20230;-75
2021/11/22 08:08:16;;;;;;;11.30;6.23;;;2.50;99.90;;;;;;4964907;28;20230;-79
2021/11/22 08:10:47;;;;;;;12.50;6.10;;;2.60;99.90;;;;;;4987864;28;20204;-75
2021/11/22 08:13:13;;;;;;;10.60;5.37;;;2.60;99.90;;;;;;4988919;28;20200;-78
2021/11/22 08:15:40;;;;;;;22.30;7.90;;;2.60;99.90;;;;;;4988656;28;20227;-81
2021/11/22 08:18:08;;;;;;;10.37;6.43;;;2.70;99.90;;;;;;4987575;28;20200;-80
2021/11/22 08:20:35;;;;;;;9.83;5.23;;;2.80;99.90;;;;;;4987645;28;20212;-80
2021/11/22 08:23:03;;;;;;;9.43;5.40;;;2.80;99.90;;;;;;4972371;28;20691;-78
2021/11/22 08:25:33;;;;;;;10.73;5.47;;;2.80;99.90;;;;;;4993509;28;20208;-81
2021/11/22 08:28:01;;;;;;;8.90;4.93;;;2.80;99.90;;;;;;5013212;28;20238;-81
2021/11/22 08:30:30;;;;;;;10.80;5.30;;;2.90;99.90;;;;;;5027103;28;20207;-81
2021/11/22 08:32:57;;;;;;;11.27;6.83;;;2.80;99.90;;;;;;5025128;28;20216;-80
2021/11/22 08:35:25;;;;;;;13.70;6.87;;;2.90;99.90;;;;;;5009638;28;20203;-84
2021/11/22 08:37:52;;;;;;;13.97;7.10;;;2.90;99.90;;;;;;5010188;28;20204;-83
2021/11/22 08:40:22;;;;;;;15.17;7.63;;;2.90;99.90;;;;;;5010702;28;20234;-85
2021/11/22 08:42:51;;;;;;;19.47;12.07;;;3.00;99.90;;;;;;5011106;28;20220;-87
2021/11/22 08:45:18;;;;;;;22.20;13.93;;;3.10;99.90;;;;;;5011259;28;20203;-87
2021/11/22 08:47:45;;;;;;;19.93;13.43;;;3.20;99.90;;;;;;5010806;28;20235;-87
2021/11/22 08:50:13;;;;;;;16.77;11.20;;;3.30;99.90;;;;;;5011175;28;20203;-87
2021/11/22 08:52:41;;;;;;;17.00;9.53;;;3.30;99.90;;;;;;5010660;28;20591;-87
2021/11/22 08:55:08;;;;;;;11.43;8.27;;;3.40;99.90;;;;;;5010644;28;20199;-86
2021/11/22 08:57:36;;;;;;;13.47;9.13;;;3.30;99.90;;;;;;5008453;28;20207;-87
2021/11/22 09:00:08;;;;;;;10.07;7.30;;;3.30;99.90;;;;;;5009827;28;20599;-86
2021/11/22 09:02:35;;;;;;;10.40;6.37;;;3.40;99.90;;;;;;5008477;28;20211;-86
2021/11/22 09:05:02;;;;;;;9.87;7.37;;;3.40;99.90;;;;;;5010469;28;20219;-85
2021/11/22 09:07:29;;;;;;;10.50;7.53;;;3.40;99.90;;;;;;5010818;28;20227;-84
2021/11/22 09:09:55;;;;;;;10.30;8.30;;;3.40;99.90;;;;;;5010113;28;20218;-85
2021/11/22 09:12:23;;;;;;;10.00;7.40;;;3.40;99.90;;;;;;5010053;28;20236;-81
2021/11/22 09:14:49;;;;;;;8.63;6.57;;;3.50;99.90;;;;;;5007676;28;20636;-81
2021/11/22 09:17:18;;;;;;;9.07;6.50;;;3.50;99.90;;;;;;5007389;28;20209;-81
2021/11/22 09:19:46;;;;;;;10.83;6.30;;;3.60;99.90;;;;;;5006330;28;20222;-83
2021/11/22 09:22:13;;;;;;;13.57;7.10;;;3.70;99.90;;;;;;5007811;28;20693;-82
2021/11/22 09:24:41;;;;;;;22.10;14.77;;;3.80;99.90;;;;;;5006972;28;20210;-82
2021/11/22 09:27:08;;;;;;;16.50;11.90;;;3.90;99.90;;;;;;5007317;28;20239;-82
2021/11/22 09:29:36;;;;;;;14.33;8.97;;;4.00;99.90;;;;;;5006681;28;20199;-81
2021/11/22 09:32:03;;;;;;;10.83;5.90;;;4.10;99.90;;;;;;5005976;28;20203;-82
2021/11/22 09:34:32;;;;;;;7.60;4.63;;;4.20;99.90;;;;;;4991463;28;20311;-80
2021/11/22 09:36:58;;;;;;;9.20;3.93;;;4.30;99.90;;;;;;4985970;28;20204;-81
2021/11/22 09:39:25;;;;;;;13.37;4.77;;;4.30;99.90;;;;;;4985769;28;20196;-80
2021/11/22 09:41:53;;;;;;;8.43;3.10;;;4.40;99.90;;;;;;4985688;28;20218;-81
2021/11/22 09:44:22;;;;;;;5.93;2.73;;;4.60;99.90;;;;;;4984710;28;20200;-81
2021/11/22 09:46:49;;;;;;;7.83;1.73;;;4.70;99.90;;;;;;4985755;28;20339;-82
2021/11/22 09:49:16;;;;;;;6.10;1.87;;;4.80;99.90;;;;;;4985600;28;20643;-79
2021/11/22 09:51:45;;;;;;;2.27;1.50;;;4.90;99.90;;;;;;4987284;28;20212;-81
2021/11/22 09:54:12;;;;;;;6.50;2.90;;;5.00;99.90;;;;;;4986569;28;20192;-80
2021/11/22 09:56:40;;;;;;;5.77;1.70;;;5.20;99.90;;;;;;4986232;28;20210;-81
2021/11/22 09:59:07;;;;;;;6.47;1.80;;;5.30;99.90;;;;;;4999898;28;20207;-82
2021/11/22 10:01:35;;;;;;;4.43;1.60;;;5.40;99.90;;;;;;5004839;28;20529;-82
2021/11/22 10:04:05;;;;;;;5.87;1.50;;;5.40;99.90;;;;;;5004684;28;20283;-81
2021/11/22 10:06:54;;;;;;;9.83;2.53;;;5.50;99.90;;;;;;4988060;28;20208;-81
2021/11/22 10:09:40;;;;;;;7.40;2.00;;;5.60;99.90;;;;;;4998384;28;20231;-80
2021/11/22 10:12:10;;;;;;;7.07;2.50;;;5.60;99.90;;;;;;5032146;28;20301;-81
2021/11/22 10:14:40;;;;;;;6.37;1.90;;;5.70;99.90;;;;;;5035333;28;20214;-82
2021/11/22 10:17:32;;;;;;;9.17;2.40;;;5.80;99.90;;;;;;5020788;28;20199;-85
2021/11/22 10:20:17;;;;;;;9.60;1.70;;;5.80;99.90;;;;;;5013227;28;20511;-82
2021/11/22 10:22:48;;;;;;;3.50;1.23;;;5.90;99.90;;;;;;5004807;28;20227;-85
2021/11/22 10:25:18;;;;;;;11.50;1.57;;;6.00;99.90;;;;;;4986897;28;20581;-83
2021/11/22 10:27:44;;;;;;;8.63;1.57;;;6.00;99.90;;;;;;4987623;28;20240;-83
2021/11/22 10:30:23;;;;;;;9.50;1.77;;;6.10;99.90;;;;;;4986142;28;20216;-78
2021/11/22 10:32:53;;;;;;;3.57;1.27;;;6.20;99.90;;;;;;4986105;28;20220;-80
2021/11/22 10:35:21;;;;;;;1.97;0.80;;;6.30;99.90;;;;;;4985299;28;20203;-79
2021/11/22 10:37:57;;;;;;;10.13;1.20;;;6.40;99.90;;;;;;4986919;28;20208;-86
2021/11/22 10:40:25;;;;;;;7.43;1.23;;;6.50;99.90;;;;;;4988450;28;20199;-84
2021/11/22 10:42:53;;;;;;;8.10;2.40;;;6.60;99.90;;;;;;4987308;28;20220;-84
2021/11/22 10:45:25;;;;;;;4.67;1.07;;;6.70;99.90;;;;;;4986495;28;20215;-86
2021/11/22 10:48:11;;;;;;;2.93;0.97;;;6.80;99.90;;;;;;4985931;28;20338;-81
2021/11/22 10:50:47;;;;;;;4.00;0.87;;;6.90;99.90;;;;;;4992611;28;20207;-81
2021/11/22 10:53:16;;;;;;;7.77;3.03;;;7.00;99.90;;;;;;5007620;28;20539;-80
2021/11/22 10:55:48;;;;;;;2.57;1.00;;;7.10;99.90;;;;;;5008737;28;20213;-80
2021/11/22 10:58:37;;;;;;;3.00;0.90;;;7.20;99.90;;;;;;5008746;28;20282;-79
2021/11/22 11:01:45;;;;;;;0.90;0.70;;;7.30;99.90;;;;;;5014902;28;20202;-81
2021/11/22 11:04:17;;;;;;;2.97;1.33;;;7.40;99.90;;;;;;5003807;28;20239;-80
2021/11/22 11:06:51;;;;;;;3.83;1.90;;;7.50;99.90;;;;;;4989108;28;20224;-78
2021/11/22 11:09:23;;;;;;;2.90;0.90;;;7.60;99.90;;;;;;4996587;28;20233;-83
2021/11/22 11:11:54;;;;;;;3.97;0.90;;;7.70;99.90;;;;;;5008639;28;20203;-84
2021/11/22 11:14:21;;;;;;;3.47;0.90;;;7.70;99.90;;;;;;4999488;28;20207;-85
2021/11/22 11:16:48;;;;;;;3.43;0.77;;;7.80;99.90;;;;;;4988651;28;20219;-84
2021/11/22 11:19:17;;;;;;;11.33;1.77;;;7.90;99.90;;;;;;4988328;28;20212;-83
2021/11/22 11:21:46;;;;;;;2.10;0.67;;;7.90;99.90;;;;;;4989792;28;20442;-83
2021/11/22 11:24:14;;;;;;;4.10;0.80;;;8.00;99.90;;;;;;4989992;28;20211;-78
2021/11/22 11:26:44;;;;;;;1.43;0.63;;;8.10;99.90;;;;;;4989759;28;20232;-80
2021/11/22 11:29:12;;;;;;;2.50;0.70;;;8.20;99.90;;;;;;4989704;28;20223;-78
2021/11/22 11:31:40;;;;;;;4.23;1.00;;;8.20;99.90;;;;;;4990940;28;20695;-78
2021/11/22 11:34:09;;;;;;;5.33;0.87;;;8.20;99.90;;;;;;4989037;28;20208;-83
2021/11/22 11:37:18;;;;;;;3.67;0.70;;;8.30;99.90;;;;;;4988325;28;20200;-82
2021/11/22 11:40:18;;;;;;;7.30;1.00;;;8.30;99.90;;;;;;4989042;28;20235;-79
2021/11/22 11:43:22;;;;;;;2.93;0.80;;;8.30;99.90;;;;;;4998428;28;20215;-86
2021/11/22 11:45:54;;;;;;;6.27;0.90;;;8.30;99.90;;;;;;5010059;28;20215;-79
2021/11/22 11:48:38;;;;;;;2.47;0.70;;;8.50;99.90;;;;;;5009992;28;20496;-84
2021/11/22 11:51:08;;;;;;;2.57;0.93;;;8.50;99.90;;;;;;5007695;28;20213;-79
2021/11/22 11:53:37;;;;;;;1.77;1.00;;;8.60;99.90;;;;;;5008825;28;20210;-85
2021/11/22 11:56:10;;;;;;;3.90;1.00;;;8.60;99.90;;;;;;5007858;28;20207;-78
2021/11/22 11:58:39;;;;;;;3.53;0.70;;;8.70;99.90;;;;;;5005647;28;20230;-79
2021/11/22 12:01:12;;;;;;;2.37;0.90;;;8.70;99.90;;;;;;5007044;28;20199;-81
2021/11/22 12:04:07;;;;;;;2.93;0.80;;;8.70;99.90;;;;;;5005859;28;20199;-79
2021/11/22 12:06:56;;;;;;;6.20;1.93;;;8.80;99.90;;;;;;5006978;28;20218;-80
2021/11/22 12:09:29;;;;;;;4.77;0.87;;;8.80;99.90;;;;;;5002191;28;20322;-79
2021/11/22 12:11:59;;;;;;;4.03;0.80;;;8.90;99.90;;;;;;5001106;28;20291;-84
2021/11/22 12:14:56;;;;;;;5.13;0.93;;;8.90;99.90;;;;;;4988656;28;20208;-78
2021/11/22 12:17:49;;;;;;;3.23;1.30;;;8.90;99.90;;;;;;4988247;28;20215;-84
2021/11/22 12:20:47;;;;;;;4.57;1.20;;;9.00;99.90;;;;;;4990520;28;20211;-77
2021/11/22 12:23:19;;;;;;;4.33;1.10;;;9.20;99.90;;;;;;5008140;28;20230;-78
2021/11/22 12:25:49;;;;;;;3.63;1.20;;;9.20;99.90;;;;;;4996574;28;20943;-82
2021/11/22 12:28:44;;;;;;;6.10;1.13;;;9.30;99.90;;;;;;4988219;28;20259;-79
2021/11/22 12:31:15;;;;;;;4.27;1.10;;;9.50;99.90;;;;;;4979822;28;20536;-80
2021/11/22 12:33:44;;;;;;;2.63;1.00;;;9.60;99.90;;;;;;4989443;28;20196;-80
2021/11/22 12:36:49;;;;;;;4.67;1.07;;;9.70;99.90;;;;;;4988711;28;20204;-77
2021/11/22 12:39:27;;;;;;;3.97;0.80;;;9.80;99.90;;;;;;4943626;29;20205;-78
2021/11/22 12:42:14;;;;;;;4.23;0.87;;;9.90;99.90;;;;;;4947063;28;20213;-80
2021/11/22 12:44:55;;;;;;;1.70;0.80;;;9.90;99.90;;;;;;4975634;28;20203;-80
2021/11/22 12:47:28;;;;;;;4.97;1.40;;;9.90;99.90;;;;;;5000128;28;20245;-83
2021/11/22 12:50:09;;;;;;;5.73;0.80;;;9.90;99.90;;;;;;5008256;28;20257;-79
2021/11/22 12:52:36;;;;;;;5.00;1.60;;;9.90;99.90;;;;;;5008053;28;20203;-83
2021/11/22 12:55:16;;;;;;;6.13;1.03;;;9.90;99.90;;;;;;5008048;28;20305;-79
2021/11/22 12:57:45;;;;;;;2.73;0.80;;;9.90;99.90;;;;;;5007912;28;20198;-80
2021/11/22 13:00:26;;;;;;;4.23;0.70;;;9.90;99.90;;;;;;5008224;28;20211;-80
2021/11/22 13:03:07;;;;;;;1.70;0.73;;;9.80;99.90;;;;;;4994696;28;20778;-80
2021/11/22 13:05:59;;;;;;;3.37;1.30;;;9.70;99.90;;;;;;5006739;28;20196;-84
2021/11/22 13:08:46;;;;;;;6.97;1.17;;;9.70;99.90;;;;;;4988824;28;20588;-83
2021/11/22 13:11:16;;;;;;;2.33;0.77;;;9.60;99.90;;;;;;4995046;28;20294;-82
2021/11/22 13:13:46;;;;;;;3.80;0.90;;;9.60;99.90;;;;;;5007141;28;20217;-81